createdAt,value
2023-02-03T00:01:51.333Z,100433.84
2023-02-03T00:04:18.282Z,100440.38
2023-02-03T00:06:45.611Z,100433.31
2023-02-03T00:09:12.494Z,100433.91
2023-02-03T00:11:39.852Z,100443.00
2023-02-03T00:14:08.100Z,100430.84
2023-02-03T00:16:35.558Z,100427.19
2023-02-03T00:19:02.862Z,100430.44
2023-02-03T00:21:29.725Z,100425.28
2023-02-03T00:23:56.581Z,100430.31
2023-02-03T00:26:26.003Z,100424.41
2023-02-03T00:28:52.929Z,100429.50
2023-02-03T00:31:24.517Z,100428.63
2023-02-03T00:33:58.303Z,100419.28
2023-02-03T00:36:26.418Z,100413.25
2023-02-03T00:38:53.894Z,100396.84
2023-02-03T00:41:21.670Z,100403.53
2023-02-03T00:43:49.450Z,100395.03
2023-02-03T00:46:16.792Z,100406.03
2023-02-03T00:48:44.052Z,100394.00
2023-02-03T00:51:10.908Z,100388.00
2023-02-03T00:53:37.950Z,100377.75
2023-02-03T00:56:12.452Z,100382.91
2023-02-03T00:58:42.439Z,100374.41
2023-02-03T01:01:09.875Z,100361.75
2023-02-03T01:03:37.088Z,100360.94
2023-02-03T01:06:18.835Z,100361.81
2023-02-03T01:08:47.740Z,100357.66
2023-02-03T01:11:19.817Z,100343.31
2023-02-03T01:13:49.084Z,100344.25
2023-02-03T01:16:18.698Z,100331.56
2023-02-03T01:18:46.674Z,100336.66
2023-02-03T01:21:25.229Z,100345.34
2023-02-03T01:23:53.458Z,100338.72
2023-02-03T01:26:21.677Z,100331.94
2023-02-03T01:28:53.107Z,100344.81
2023-02-03T01:31:24.060Z,100339.00
2023-02-03T01:33:52.596Z,100339.22
2023-02-03T01:36:19.557Z,100334.19
2023-02-03T01:38:46.556Z,100327.47
2023-02-03T01:41:19.588Z,100327.47
2023-02-03T01:43:49.906Z,100326.53
2023-02-03T01:46:31.781Z,100325.72
2023-02-03T01:49:01.756Z,100319.16
2023-02-03T01:51:29.915Z,100326.06
2023-02-03T01:53:57.537Z,100321.78
2023-02-03T01:56:25.568Z,100314.06
2023-02-03T01:58:52.530Z,100309.91
2023-02-03T02:01:19.912Z,100298.91
2023-02-03T02:03:52.346Z,100298.16
2023-02-03T02:06:19.313Z,100292.41
2023-02-03T02:08:51.560Z,100283.88
2023-02-03T02:11:21.481Z,100278.03
2023-02-03T02:13:50.099Z,100280.66
2023-02-03T02:16:18.809Z,100276.34
2023-02-03T02:18:48.745Z,100267.00
2023-02-03T02:21:43.174Z,100256.16
2023-02-03T02:24:28.360Z,100248.56
2023-02-03T02:26:55.308Z,100251.09
2023-02-03T02:29:48.150Z,100247.63
2023-02-03T02:32:18.254Z,100235.69
2023-02-03T02:34:56.251Z,100247.56
2023-02-03T02:37:31.136Z,100243.59
2023-02-03T02:40:19.715Z,100234.22
2023-02-03T02:43:07.044Z,100235.06
2023-02-03T02:45:45.072Z,100222.38
2023-02-03T02:48:36.248Z,100223.91
2023-02-03T02:51:05.534Z,100219.75
2023-02-03T02:53:38.839Z,100229.09
2023-02-03T02:56:07.874Z,100223.25
2023-02-03T02:58:36.451Z,100215.66
2023-02-03T03:01:04.030Z,100211.50
2023-02-03T03:03:30.891Z,100210.69
2023-02-03T03:06:08.751Z,100204.06
2023-02-03T03:09:00.955Z,100211.78
2023-02-03T03:11:31.375Z,100202.44
2023-02-03T03:13:59.746Z,100197.38
2023-02-03T03:16:28.174Z,100189.72
2023-02-03T03:19:01.982Z,100182.06
2023-02-03T03:21:35.025Z,100186.25
2023-02-03T03:24:10.310Z,100171.00
2023-02-03T03:26:43.949Z,100171.06
2023-02-03T03:29:24.501Z,100166.91
2023-02-03T03:31:51.758Z,100166.94
2023-02-03T03:34:18.969Z,100166.13
2023-02-03T03:36:56.028Z,100169.50
2023-02-03T03:39:22.961Z,100162.00
2023-02-03T03:41:57.598Z,100164.53
2023-02-03T03:44:29.663Z,100165.34
2023-02-03T03:47:04.847Z,100164.53
2023-02-03T03:49:34.107Z,100155.31
2023-02-03T03:52:08.517Z,100156.13
2023-02-03T03:54:37.809Z,100147.75
2023-02-03T03:57:15.643Z,100139.22
2023-02-03T03:59:46.168Z,100142.63
2023-02-03T04:02:13.570Z,100139.28
2023-02-03T04:04:41.065Z,100128.19
2023-02-03T04:07:08.095Z,100127.31
2023-02-03T04:09:37.058Z,100116.28
2023-02-03T04:12:06.441Z,100108.75
2023-02-03T04:14:36.021Z,100102.03
2023-02-03T04:17:03.080Z,100104.59
2023-02-03T04:19:30.194Z,100103.72
2023-02-03T04:21:57.358Z,100108.06
2023-02-03T04:24:24.672Z,100101.41
2023-02-03T04:26:51.540Z,100096.38
2023-02-03T04:29:18.506Z,100087.88
2023-02-03T04:31:45.477Z,100088.75
2023-02-03T04:34:12.493Z,100081.00
2023-02-03T04:36:39.415Z,100073.31
2023-02-03T04:39:06.429Z,100069.13
2023-02-03T04:41:33.352Z,100075.19
2023-02-03T04:44:00.230Z,100053.19
2023-02-03T04:46:27.217Z,100057.56
2023-02-03T04:48:54.091Z,100052.56
2023-02-03T04:51:21.077Z,100047.53
2023-02-03T04:53:47.928Z,100032.22
2023-02-03T04:56:16.196Z,100022.97
2023-02-03T04:58:43.242Z,100026.53
2023-02-03T05:01:10.527Z,100011.28
2023-02-03T05:03:37.970Z,100013.06
2023-02-03T05:06:05.759Z,100002.91
2023-02-03T05:08:32.937Z,100008.88
2023-02-03T05:11:01.990Z,99998.69
2023-02-03T05:13:29.726Z,100002.25
2023-02-03T05:15:56.749Z,99986.00
2023-02-03T05:18:24.089Z,99980.09
2023-02-03T05:20:51.125Z,99968.91
2023-02-03T05:23:18.138Z,99963.81
2023-02-03T05:25:45.579Z,99961.19
2023-02-03T05:28:12.786Z,99962.06
2023-02-03T05:30:39.865Z,99960.16
2023-02-03T05:33:07.013Z,99954.13
2023-02-03T05:35:34.394Z,99949.84
2023-02-03T05:38:01.425Z,99947.34
2023-02-03T05:40:46.681Z,99945.59
2023-02-03T05:43:13.702Z,99936.25
2023-02-03T05:45:40.833Z,99935.44
2023-02-03T05:48:07.814Z,99924.31
2023-02-03T05:50:37.481Z,99922.66
2023-02-03T05:53:09.120Z,99918.44
2023-02-03T05:55:36.701Z,99917.72
2023-02-03T05:58:04.759Z,99912.72
2023-02-03T06:00:31.764Z,99908.56
2023-02-03T06:03:00.958Z,99899.25
2023-02-03T06:05:28.741Z,99895.78
2023-02-03T06:07:55.716Z,99890.72
2023-02-03T06:10:22.922Z,99882.19
2023-02-03T06:12:50.297Z,99877.03
2023-02-03T06:15:18.003Z,99880.53
2023-02-03T06:17:46.421Z,99865.28
2023-02-03T06:20:15.675Z,99861.97
2023-02-03T06:22:43.193Z,99846.69
2023-02-03T06:25:13.014Z,99840.81
2023-02-03T06:27:41.035Z,99838.31
2023-02-03T06:30:08.709Z,99839.31
2023-02-03T06:32:35.629Z,99835.16
2023-02-03T06:35:02.549Z,99825.75
2023-02-03T06:37:29.550Z,99821.50
2023-02-03T06:39:56.470Z,99818.03
2023-02-03T06:42:23.476Z,99807.84
2023-02-03T06:44:50.427Z,99803.63
2023-02-03T06:47:17.371Z,99791.81
2023-02-03T06:49:44.250Z,99791.13
2023-02-03T06:52:11.226Z,99785.22
2023-02-03T06:54:38.204Z,99781.84
2023-02-03T06:57:05.214Z,99771.69
2023-02-03T06:59:32.588Z,99762.34
2023-02-03T07:01:59.533Z,99756.50
2023-02-03T07:04:30.203Z,99744.53
2023-02-03T07:06:57.811Z,99741.25
2023-02-03T07:09:24.850Z,99732.84
2023-02-03T07:11:51.806Z,99720.16
2023-02-03T07:14:18.950Z,99713.50
2023-02-03T07:16:45.894Z,99704.28
2023-02-03T07:19:13.088Z,99704.41
2023-02-03T07:21:40.047Z,99709.66
2023-02-03T07:24:07.085Z,99700.44
2023-02-03T07:26:34.147Z,99701.38
2023-02-03T07:29:01.102Z,99702.34
2023-02-03T07:31:28.379Z,99693.88
2023-02-03T07:33:55.507Z,99692.31
2023-02-03T07:36:22.476Z,99693.28
2023-02-03T07:38:49.546Z,99675.44
2023-02-03T07:41:18.141Z,99671.31
2023-02-03T07:43:45.333Z,99666.31
2023-02-03T07:46:12.768Z,99653.53
2023-02-03T07:48:39.777Z,99656.28
2023-02-03T07:51:06.790Z,99646.28
2023-02-03T07:53:33.963Z,99633.50
2023-02-03T07:56:02.789Z,99631.06
2023-02-03T07:58:30.411Z,99625.16
2023-02-03T08:00:58.122Z,99622.69
2023-02-03T08:03:25.227Z,99621.06
2023-02-03T08:05:53.630Z,99617.75
2023-02-03T08:08:20.786Z,99604.13
2023-02-03T08:10:47.805Z,99599.84
2023-02-03T08:13:14.904Z,99594.94
2023-02-03T08:15:41.908Z,99585.63
2023-02-03T08:18:09.892Z,99579.72
2023-02-03T08:20:36.889Z,99578.09
2023-02-03T08:23:04.009Z,99573.06
2023-02-03T08:25:31.164Z,99570.53
2023-02-03T08:27:58.267Z,99566.28
2023-02-03T08:30:26.200Z,99561.25
2023-02-03T08:35:38.389Z,99547.72
2023-02-03T08:38:05.426Z,99546.88
2023-02-03T08:40:32.406Z,99535.88
2023-02-03T08:42:59.436Z,99528.22
2023-02-03T08:45:26.569Z,99527.41
2023-02-03T08:47:53.625Z,99521.44
2023-02-03T08:50:20.786Z,99512.13
2023-02-03T08:52:47.788Z,99499.34
2023-02-03T08:55:14.966Z,99496.03
2023-02-03T08:57:42.295Z,99485.69
2023-02-03T09:00:10.786Z,99478.84
2023-02-03T09:02:37.903Z,99468.63
2023-02-03T09:05:05.439Z,99462.59
2023-02-03T09:07:32.429Z,99453.22
2023-02-03T09:09:59.650Z,99450.75
2023-02-03T09:12:26.751Z,99450.00
2023-02-03T09:14:53.964Z,99444.06
2023-02-03T09:17:21.041Z,99437.25
2023-02-03T09:19:48.032Z,99421.94
2023-02-03T09:22:15.075Z,99418.47
2023-02-03T09:24:42.296Z,99417.59
2023-02-03T09:27:09.373Z,99404.03
2023-02-03T09:29:36.504Z,99392.94
2023-02-03T09:32:07.941Z,99393.81
2023-02-03T09:34:35.117Z,99382.75
2023-02-03T09:37:02.273Z,99368.19
2023-02-03T09:39:29.266Z,99356.25
2023-02-03T09:42:25.445Z,99350.25
2023-02-03T09:45:13.464Z,99323.84
2023-02-03T09:47:43.131Z,99312.56
2023-02-03T09:50:21.017Z,99323.66
2023-02-03T09:52:48.430Z,99304.91
2023-02-03T09:55:35.494Z,99301.38
2023-02-03T09:58:18.482Z,99293.75
2023-02-03T10:00:51.874Z,99286.09
2023-02-03T10:03:38.769Z,99282.69
2023-02-03T10:06:11.846Z,99274.13
2023-02-03T10:09:03.868Z,99260.44
2023-02-03T10:12:03.202Z,99248.53
2023-02-03T10:14:48.584Z,99244.06
2023-02-03T10:17:34.790Z,99239.78
2023-02-03T10:20:23.514Z,99237.13
2023-02-03T10:23:14.385Z,99233.69
2023-02-03T10:25:44.884Z,99218.28
2023-02-03T10:28:28.270Z,99214.84
2023-02-03T10:31:04.808Z,99195.16
2023-02-03T10:33:32.691Z,99186.53
2023-02-03T10:36:11.813Z,99181.41
2023-02-03T10:38:51.491Z,99175.41
2023-02-03T10:41:19.957Z,99159.19
2023-02-03T10:43:47.677Z,99150.59
2023-02-03T10:46:15.854Z,99142.06
2023-02-03T10:48:42.997Z,99121.50
2023-02-03T10:51:25.859Z,99118.94
2023-02-03T10:53:53.803Z,99105.38
2023-02-03T10:56:26.806Z,99090.00
2023-02-03T10:58:56.746Z,99082.31
2023-02-03T11:01:26.055Z,99073.88
2023-02-03T11:04:06.828Z,99062.88
2023-02-03T11:06:36.423Z,99053.59
2023-02-03T11:09:22.786Z,99033.22
2023-02-03T11:12:03.544Z,99028.00
2023-02-03T11:14:37.623Z,99025.41
2023-02-03T11:17:09.473Z,99020.19
2023-02-03T11:19:37.184Z,99024.53
2023-02-03T11:22:04.290Z,99001.41
2023-02-03T11:24:38.506Z,99010.75
2023-02-03T11:27:17.106Z,99000.56
2023-02-03T11:29:46.772Z,98991.16
2023-02-03T11:32:28.065Z,98989.41
2023-02-03T11:35:40.726Z,98968.81
2023-02-03T11:38:31.968Z,98980.91
2023-02-03T11:41:01.343Z,98964.63
2023-02-03T11:43:31.670Z,98955.19
2023-02-03T11:46:04.720Z,98956.94
2023-02-03T11:49:11.432Z,98946.63
2023-02-03T11:51:53.204Z,98937.22
2023-02-03T11:54:45.193Z,98932.88
2023-02-03T11:57:22.404Z,98925.31
2023-02-03T12:00:13.342Z,98926.84
2023-02-03T12:03:01.989Z,98925.16
2023-02-03T12:05:54.990Z,98926.81
2023-02-03T12:09:08.283Z,98931.09
2023-02-03T12:11:41.565Z,98919.22
2023-02-03T12:14:46.212Z,98916.63
2023-02-03T12:17:35.587Z,98909.00
2023-02-03T12:20:32.290Z,98914.97
2023-02-03T12:23:09.058Z,98909.88
2023-02-03T12:25:51.633Z,98907.31
2023-02-03T12:28:33.382Z,98910.69
2023-02-03T12:31:18.457Z,98909.06
2023-02-03T12:34:00.323Z,98903.09
2023-02-03T12:36:31.206Z,98910.78
2023-02-03T12:39:06.305Z,98892.00
2023-02-03T12:41:36.608Z,98889.44
2023-02-03T12:44:37.924Z,98897.97
2023-02-03T12:47:12.844Z,98895.47
2023-02-03T12:49:48.044Z,98892.03
2023-02-03T12:52:43.717Z,98894.59
2023-02-03T12:55:34.984Z,98879.22
2023-02-03T12:58:12.466Z,98881.00
2023-02-03T13:00:44.647Z,98888.75
2023-02-03T13:03:33.365Z,98881.94
2023-02-03T13:06:23.260Z,98879.44
2023-02-03T13:09:17.806Z,98869.16
2023-02-03T13:11:52.185Z,98867.47
2023-02-03T13:14:56.503Z,98873.44
2023-02-03T13:17:29.407Z,98875.16
2023-02-03T13:20:03.226Z,98865.75
2023-02-03T13:22:30.285Z,98864.06
2023-02-03T13:25:05.308Z,98856.38
2023-02-03T13:28:07.850Z,98857.28
2023-02-03T13:30:37.612Z,98859.88
2023-02-03T13:33:25.625Z,98864.13
2023-02-03T13:35:58.433Z,98841.94
2023-02-03T13:38:56.544Z,98861.56
2023-02-03T13:41:29.070Z,98837.66
2023-02-03T13:43:57.853Z,98847.03
2023-02-03T13:46:31.304Z,98839.38
2023-02-03T13:49:01.084Z,98833.47
2023-02-03T13:51:35.049Z,98841.19
2023-02-03T13:54:08.404Z,98842.91
2023-02-03T13:56:35.889Z,98836.94
2023-02-03T13:59:15.026Z,98832.66
2023-02-03T14:01:43.286Z,98845.47
2023-02-03T14:04:29.498Z,98836.94
2023-02-03T14:06:59.441Z,98837.84
2023-02-03T14:09:34.481Z,98836.94
2023-02-03T14:12:19.662Z,98826.63
2023-02-03T14:14:52.903Z,98836.94
2023-02-03T14:17:42.915Z,98836.09
2023-02-03T14:20:28.747Z,98831.75
2023-02-03T14:23:15.974Z,98829.97
2023-02-03T14:25:52.830Z,98841.09
2023-02-03T14:28:22.952Z,98837.66
2023-02-03T14:31:12.703Z,98847.03
2023-02-03T14:33:49.063Z,98853.81
2023-02-03T14:36:28.255Z,98850.41
2023-02-03T14:38:56.513Z,98844.28
2023-02-03T14:41:48.586Z,98863.94
2023-02-03T14:44:34.305Z,98870.81
2023-02-03T14:47:08.541Z,98862.22
2023-02-03T14:49:58.605Z,98876.78
2023-02-03T14:52:42.713Z,98865.56
2023-02-03T14:55:21.187Z,98879.22
2023-02-03T14:57:52.863Z,98880.84
2023-02-03T15:00:21.822Z,98886.88
2023-02-03T15:03:10.375Z,98893.69
2023-02-03T15:05:45.901Z,98915.00
2023-02-03T15:08:40.205Z,98916.75
2023-02-03T15:11:33.328Z,98915.81
2023-02-03T15:14:26.755Z,98914.09
2023-02-03T15:16:56.054Z,98924.31
2023-02-03T15:19:26.808Z,98890.84
2023-02-03T15:21:54.848Z,98930.94
2023-02-03T15:24:24.173Z,98924.19
2023-02-03T15:26:56.181Z,98928.47
2023-02-03T15:29:30.731Z,98935.34
2023-02-03T15:32:22.905Z,98942.13
2023-02-03T15:34:50.324Z,98934.44
2023-02-03T15:37:54.630Z,98942.03
2023-02-03T15:40:26.222Z,98937.81
2023-02-03T15:43:03.802Z,98954.03
2023-02-03T15:45:37.614Z,98924.13
2023-02-03T15:48:39.555Z,98953.03
2023-02-03T15:51:13.911Z,98937.59
2023-02-03T15:53:57.085Z,98968.31
2023-02-03T15:56:38.351Z,98975.22
2023-02-03T15:59:07.405Z,98964.19
2023-02-03T16:01:34.616Z,98970.03
2023-02-03T16:04:01.726Z,98975.28
2023-02-03T16:06:36.049Z,98991.44
2023-02-03T16:09:04.627Z,98952.00
2023-02-03T16:11:37.701Z,99000.88
2023-02-03T16:14:07.429Z,99000.06
2023-02-03T16:16:38.672Z,99000.94
2023-02-03T16:19:22.214Z,99010.34
2023-02-03T16:21:51.952Z,99012.66
2023-02-03T16:24:38.487Z,99029.84
2023-02-03T16:27:28.025Z,99021.97
2023-02-03T16:30:35.051Z,99040.03
2023-02-03T16:33:38.905Z,99056.91
2023-02-03T16:36:32.224Z,99061.19
2023-02-03T16:39:21.132Z,99067.25
2023-02-03T16:42:06.624Z,99082.63
2023-02-03T16:44:52.560Z,99087.81
2023-02-03T16:47:44.696Z,99080.69
2023-02-03T16:50:38.543Z,99086.84
2023-02-03T16:53:09.626Z,99093.59
2023-02-03T16:55:36.865Z,99084.34
2023-02-03T16:58:04.049Z,99101.94
2023-02-03T17:00:31.233Z,99106.34
2023-02-03T17:02:58.780Z,99119.28
2023-02-03T17:05:26.057Z,99106.16
2023-02-03T17:07:52.969Z,99113.97
2023-02-03T17:10:20.148Z,99122.28
2023-02-03T17:12:47.345Z,99107.78
2023-02-03T17:15:14.465Z,99125.03
2023-02-03T17:17:41.389Z,99137.06
2023-02-03T17:20:09.051Z,99139.44
2023-02-03T17:22:36.080Z,99156.59
2023-02-03T17:25:03.467Z,99165.06
2023-02-03T17:27:30.584Z,99166.41
2023-02-03T17:29:57.805Z,99150.31
2023-02-03T17:32:24.874Z,99152.31
2023-02-03T17:34:52.040Z,99137.00
2023-02-03T17:37:19.084Z,99145.53
2023-02-03T17:53:33.108Z,99176.72
2023-02-03T17:56:08.301Z,99191.13
2023-02-03T17:58:35.374Z,99185.91
2023-02-03T18:01:09.173Z,99212.47
2023-02-03T18:03:36.311Z,99215.94
2023-02-03T18:06:04.589Z,99201.16
2023-02-03T18:08:31.721Z,99222.59
2023-02-03T18:10:59.893Z,99219.94
2023-02-03T18:13:27.966Z,99219.06
2023-02-03T18:15:57.880Z,99225.84
2023-02-03T18:18:26.258Z,99228.50
2023-02-03T18:20:53.418Z,99226.69
2023-02-03T18:23:21.435Z,99220.56
2023-02-03T18:25:54.960Z,99249.63
2023-02-03T18:28:23.506Z,99238.50
2023-02-03T18:30:50.794Z,99224.03
2023-02-03T18:33:18.334Z,99234.19
2023-02-03T18:35:45.307Z,99276.75
2023-02-03T18:38:12.981Z,99275.66
2023-02-03T18:40:40.306Z,99307.03
2023-02-03T18:43:07.989Z,99293.63
2023-02-03T18:45:38.647Z,99302.78
2023-02-03T18:48:06.329Z,99295.38
2023-02-03T18:50:34.797Z,99321.63
2023-02-03T18:53:03.402Z,99325.81
2023-02-03T18:55:31.946Z,99354.75
2023-02-03T18:57:59.367Z,99357.28
2023-02-03T19:00:27.544Z,99365.78
2023-02-03T19:02:55.287Z,99382.88
2023-02-03T19:05:22.704Z,99390.50
2023-02-03T19:07:51.113Z,99379.69
2023-02-03T19:10:18.775Z,99415.53
2023-02-03T19:12:46.431Z,99414.56
2023-02-03T19:15:13.519Z,99426.78
2023-02-03T19:17:40.972Z,99438.09
2023-02-03T19:20:10.461Z,99427.03
2023-02-03T19:22:39.097Z,99428.75
2023-02-03T19:25:06.797Z,99433.03
2023-02-03T19:27:33.744Z,99443.31
2023-02-03T19:30:00.780Z,99450.28
2023-02-03T19:32:27.780Z,99460.63
2023-02-03T19:34:54.939Z,99471.63
2023-02-03T19:37:22.055Z,99465.09
2023-02-03T19:39:51.536Z,99495.66
2023-02-03T19:42:18.625Z,99491.41
2023-02-03T19:44:45.715Z,99494.78
2023-02-03T19:47:13.339Z,99496.88
2023-02-03T19:49:40.599Z,99500.91
2023-02-03T19:52:09.157Z,99508.72
2023-02-03T19:54:36.645Z,99524.03
2023-02-03T19:57:03.650Z,99535.16
2023-02-03T19:59:30.800Z,99542.94
2023-02-03T20:02:01.648Z,99553.16
2023-02-03T20:04:36.229Z,99555.06
2023-02-03T20:07:07.780Z,99560.19
2023-02-03T20:09:35.924Z,99577.34
2023-02-03T20:12:04.001Z,99570.44
2023-02-03T20:14:34.445Z,99585.72
2023-02-03T20:17:04.736Z,99608.81
2023-02-03T20:19:31.999Z,99631.97
2023-02-03T20:22:00.778Z,99634.47
2023-02-03T20:24:27.951Z,99636.91
2023-02-03T20:26:54.966Z,99672.66
2023-02-03T20:29:22.080Z,99660.53
2023-02-03T20:31:49.207Z,99662.91
2023-02-03T20:34:16.169Z,99672.34
2023-02-03T20:36:43.255Z,99711.09
2023-02-03T20:39:19.627Z,99705.56
2023-02-03T20:41:46.636Z,99728.47
2023-02-03T20:44:14.422Z,99750.91
2023-02-03T20:46:41.454Z,99756.72
2023-02-03T20:49:13.656Z,99764.56
2023-02-03T20:51:41.288Z,99774.81
2023-02-03T20:54:21.977Z,99787.50
2023-02-03T20:56:49.932Z,99769.53
2023-02-03T20:59:19.663Z,99780.72
2023-02-03T21:01:47.820Z,99787.56
2023-02-03T21:04:38.121Z,99788.38
2023-02-03T21:07:14.551Z,99803.06
2023-02-03T21:09:43.286Z,99810.66
2023-02-03T21:12:13.953Z,99822.59
2023-02-03T21:14:44.190Z,99839.66
2023-02-03T21:17:27.094Z,99837.06
2023-02-03T21:19:55.659Z,99851.72
2023-02-03T21:22:26.014Z,99855.97
2023-02-03T21:24:57.625Z,99856.78
2023-02-03T21:27:31.079Z,99872.91
2023-02-03T21:30:00.243Z,99882.38
2023-02-03T21:32:38.608Z,99887.44
2023-02-03T21:35:22.372Z,99907.00
2023-02-03T21:37:53.808Z,99902.63
2023-02-03T21:40:26.084Z,99919.78
2023-02-03T21:42:54.270Z,99929.19
2023-02-03T21:45:28.661Z,99936.97
2023-02-03T21:47:57.290Z,99953.25
2023-02-03T21:50:40.911Z,99969.50
2023-02-03T21:53:07.973Z,99984.19
2023-02-03T21:55:35.988Z,99987.69
2023-02-03T21:58:22.713Z,99985.19
2023-02-03T22:00:50.631Z,100007.59
2023-02-03T22:03:40.861Z,100018.81
2023-02-03T22:06:16.828Z,100029.91
2023-02-03T22:08:48.566Z,100038.56
2023-02-03T22:11:16.027Z,100056.53
2023-02-03T22:13:43.119Z,100059.97
2023-02-03T22:16:10.569Z,100054.69
2023-02-03T22:18:37.653Z,100065.00
2023-02-03T22:21:04.628Z,100080.19
2023-02-03T22:23:32.027Z,100082.97
2023-02-03T22:25:59.224Z,100068.09
2023-02-03T22:28:26.148Z,100104.28
2023-02-03T22:30:53.576Z,100091.03
2023-02-03T22:33:20.806Z,100095.44
2023-02-03T22:35:47.953Z,100116.91
2023-02-03T22:38:14.959Z,100110.31
2023-02-03T22:40:42.312Z,100123.16
2023-02-03T22:43:09.453Z,100125.88
2023-02-03T22:45:36.625Z,100135.44
2023-02-03T22:48:04.584Z,100156.38
2023-02-03T22:50:35.717Z,100153.88
2023-02-03T22:53:04.532Z,100147.72
2023-02-03T22:55:32.144Z,100171.75
2023-02-03T22:57:59.473Z,100184.50
2023-02-03T23:00:27.004Z,100174.22
2023-02-03T23:02:54.276Z,100195.66
2023-02-03T23:05:21.634Z,100230.81
2023-02-03T23:07:49.445Z,100222.25
2023-02-03T23:10:23.561Z,100220.41
2023-02-03T23:12:50.876Z,100233.59
2023-02-03T23:15:18.299Z,100240.53
2023-02-03T23:17:45.805Z,100256.03
2023-02-03T23:20:14.808Z,100255.63
2023-02-03T23:22:42.484Z,100263.44
2023-02-03T23:25:10.797Z,100256.84
2023-02-03T23:27:38.427Z,100248.19
2023-02-03T23:30:06.763Z,100277.28
2023-02-03T23:32:34.091Z,100267.22
2023-02-03T23:35:20.471Z,100291.31
2023-02-03T23:37:47.666Z,100309.50
2023-02-03T23:40:15.850Z,100297.56
2023-02-03T23:42:42.839Z,100313.91
2023-02-03T23:45:11.916Z,100309.44
2023-02-03T23:47:43.413Z,100328.25
2023-02-03T23:50:13.904Z,100329.34
2023-02-03T23:52:41.076Z,100334.63
2023-02-03T23:55:14.183Z,100331.91
2023-02-03T23:57:44.030Z,100347.41
